createdAt,value
2023-04-15T00:00:10.043Z,6.33
2023-04-15T00:02:42.130Z,6.90
2023-04-15T00:05:13.665Z,6.47
2023-04-15T00:07:46.905Z,6.27
2023-04-15T00:10:18.196Z,5.87
2023-04-15T00:12:49.474Z,5.83
2023-04-15T00:15:20.754Z,5.83
2023-04-15T00:17:52.211Z,5.40
2023-04-15T00:20:23.540Z,5.37
2023-04-15T00:22:54.905Z,5.60
2023-04-15T00:25:26.344Z,5.03
2023-04-15T00:27:57.653Z,5.03
2023-04-15T00:30:28.927Z,5.00
2023-04-15T00:33:02.292Z,4.70
2023-04-15T00:35:33.668Z,4.80
2023-04-15T00:38:07.142Z,4.73
2023-04-15T00:40:38.628Z,5.23
2023-04-15T00:43:10.105Z,5.27
2023-04-15T00:45:41.751Z,5.30
2023-04-15T00:48:13.399Z,5.00
2023-04-15T00:50:44.756Z,4.93
2023-04-15T00:53:16.150Z,5.90
2023-04-15T00:55:47.473Z,5.80
2023-04-15T00:58:19.149Z,5.90
2023-04-15T01:00:54.192Z,5.57
2023-04-15T01:03:25.734Z,4.80
2023-04-15T01:06:00.923Z,4.53
2023-04-15T01:08:34.359Z,4.20
2023-04-15T01:11:06.036Z,3.97
2023-04-15T01:13:37.316Z,5.20
2023-04-15T01:16:09.184Z,4.87
2023-04-15T01:18:41.476Z,3.93
2023-04-15T01:21:13.931Z,3.53
2023-04-15T01:23:47.721Z,3.57
2023-04-15T01:26:19.826Z,3.70
2023-04-15T01:28:51.669Z,3.77
2023-04-15T01:31:23.114Z,4.20
2023-04-15T01:33:54.424Z,4.03
2023-04-15T01:36:25.686Z,4.63
2023-04-15T01:38:57.333Z,4.13
2023-04-15T01:41:29.032Z,4.30
2023-04-15T01:44:00.562Z,4.37
2023-04-15T01:46:32.151Z,4.80
2023-04-15T01:49:03.604Z,5.00
2023-04-15T01:51:34.871Z,4.20
2023-04-15T01:54:06.433Z,5.10
2023-04-15T01:56:38.803Z,5.13
2023-04-15T01:59:11.184Z,4.53
2023-04-15T02:01:42.503Z,4.50
2023-04-15T02:04:16.596Z,3.77
2023-04-15T02:06:48.913Z,4.37
2023-04-15T02:09:20.454Z,4.33
2023-04-15T02:11:53.586Z,4.47
2023-04-15T02:14:24.929Z,4.63
2023-04-15T02:16:56.474Z,4.13
2023-04-15T02:19:27.837Z,4.23
2023-04-15T02:22:00.057Z,4.20
2023-04-15T02:24:31.545Z,4.87
2023-04-15T02:27:03.499Z,4.37
2023-04-15T02:29:34.795Z,5.30
2023-04-15T02:32:06.270Z,4.87
2023-04-15T02:34:41.186Z,5.13
2023-04-15T02:37:13.517Z,4.97
2023-04-15T02:39:45.127Z,5.73
2023-04-15T02:42:16.534Z,5.27
2023-04-15T02:44:47.802Z,6.00
2023-04-15T02:47:19.110Z,5.73
2023-04-15T02:49:50.551Z,5.60
2023-04-15T02:52:21.805Z,6.13
2023-04-15T02:54:57.321Z,6.07
2023-04-15T02:57:29.489Z,6.15
2023-04-15T03:00:00.839Z,6.77
2023-04-15T03:02:39.382Z,6.07
2023-04-15T03:05:14.276Z,6.23
2023-04-15T03:07:45.710Z,6.60
2023-04-15T03:10:16.996Z,6.90
2023-04-15T03:12:48.803Z,5.57
2023-04-15T03:15:20.084Z,5.73
2023-04-15T03:17:51.516Z,5.53
2023-04-15T03:20:23.355Z,5.00
2023-04-15T03:22:54.691Z,5.53
2023-04-15T03:25:26.253Z,6.07
2023-04-15T03:27:58.259Z,5.87
2023-04-15T03:30:29.533Z,5.80
2023-04-15T03:33:00.932Z,5.47
2023-04-15T03:35:32.369Z,5.60
2023-04-15T03:38:03.909Z,6.27
2023-04-15T03:40:35.504Z,5.83
2023-04-15T03:43:07.153Z,6.07
2023-04-15T03:45:38.470Z,4.90
2023-04-15T03:48:17.177Z,5.67
2023-04-15T03:50:48.828Z,5.83
2023-04-15T03:53:21.329Z,5.40
2023-04-15T03:55:52.628Z,5.87
2023-04-15T03:58:24.050Z,7.10
2023-04-15T04:00:55.465Z,5.70
2023-04-15T04:03:27.415Z,6.27
2023-04-15T04:05:59.228Z,6.00
2023-04-15T04:08:30.479Z,5.93
2023-04-15T04:11:01.887Z,5.70
2023-04-15T04:13:33.281Z,5.57
2023-04-15T04:16:04.895Z,5.33
2023-04-15T04:18:36.321Z,5.40
2023-04-15T04:21:07.668Z,5.00
2023-04-15T04:23:39.056Z,5.20
2023-04-15T04:26:10.452Z,4.63
2023-04-15T04:28:41.945Z,5.80
2023-04-15T04:31:13.231Z,5.23
2023-04-15T04:33:44.613Z,5.60
2023-04-15T04:36:16.349Z,5.90
2023-04-15T04:38:47.748Z,5.60
2023-04-15T04:41:19.048Z,6.57
2023-04-15T04:43:50.304Z,5.43
2023-04-15T04:46:21.630Z,5.53
2023-04-15T04:48:52.972Z,5.90
2023-04-15T04:51:24.458Z,5.13
2023-04-15T04:53:56.574Z,6.30
2023-04-15T04:56:27.862Z,5.73
2023-04-15T04:58:59.251Z,5.90
2023-04-15T05:01:30.737Z,5.60
2023-04-15T05:04:02.247Z,5.50
2023-04-15T05:06:33.963Z,6.37
2023-04-15T05:09:05.295Z,5.27
2023-04-15T05:11:36.664Z,5.83
2023-04-15T05:14:08.084Z,5.23
2023-04-15T05:16:39.347Z,5.37
2023-04-15T05:19:10.754Z,4.93
2023-04-15T05:21:42.379Z,5.00
2023-04-15T05:24:13.687Z,5.37
2023-04-15T05:26:44.983Z,5.40
2023-04-15T05:29:16.674Z,4.40
2023-04-15T05:31:47.941Z,4.73
2023-04-15T05:34:19.224Z,4.57
2023-04-15T05:36:50.546Z,4.70
2023-04-15T05:39:21.940Z,5.13
2023-04-15T05:41:53.502Z,4.53
2023-04-15T05:44:24.846Z,4.47
2023-04-15T05:46:56.148Z,4.90
2023-04-15T05:49:27.507Z,5.20
2023-04-15T05:51:59.131Z,6.17
2023-04-15T05:54:30.430Z,5.10
2023-04-15T05:57:01.720Z,6.30
2023-04-15T05:59:33.148Z,6.63
2023-04-15T06:02:04.669Z,6.70
2023-04-15T06:04:36.863Z,6.97
2023-04-15T06:07:08.218Z,7.77
2023-04-15T06:09:39.575Z,8.70
2023-04-15T06:12:12.231Z,9.57
2023-04-15T06:14:43.629Z,9.03
2023-04-15T06:17:14.981Z,9.33
2023-04-15T06:19:46.319Z,9.17
2023-04-15T06:22:17.637Z,9.07
2023-04-15T06:24:52.997Z,10.27
2023-04-15T06:27:24.414Z,9.60
2023-04-15T06:29:55.703Z,9.40
2023-04-15T06:32:27.076Z,9.90
2023-04-15T06:34:58.494Z,10.23
2023-04-15T06:37:29.845Z,10.90
2023-04-15T06:40:01.152Z,12.50
2023-04-15T06:42:32.619Z,11.10
2023-04-15T06:45:04.269Z,13.00
2023-04-15T06:47:35.692Z,12.53
2023-04-15T06:50:07.631Z,12.83
2023-04-15T06:52:39.189Z,11.67
2023-04-15T06:55:10.744Z,12.60
2023-04-15T06:57:42.177Z,11.43
2023-04-15T07:00:14.093Z,13.70
2023-04-15T07:02:45.426Z,13.70
2023-04-15T07:05:17.049Z,13.97
2023-04-15T07:07:48.294Z,13.70
2023-04-15T07:10:20.315Z,13.33
2023-04-15T07:12:52.462Z,13.77
2023-04-15T07:15:23.882Z,13.73
2023-04-15T07:17:56.025Z,15.03
2023-04-15T07:20:27.363Z,16.17
2023-04-15T07:22:58.902Z,15.63
2023-04-15T07:25:30.333Z,14.60
2023-04-15T07:28:02.431Z,16.73
2023-04-15T07:30:34.446Z,18.13
2023-04-15T07:33:05.758Z,18.17
2023-04-15T07:35:37.021Z,16.57
2023-04-15T07:38:08.341Z,18.17
2023-04-15T07:40:40.378Z,19.30
2023-04-15T07:43:11.960Z,17.87
2023-04-15T07:45:43.516Z,19.40
2023-04-15T07:48:14.952Z,18.07
2023-04-15T07:50:46.460Z,20.37
2023-04-15T07:53:17.756Z,19.27
2023-04-15T07:55:49.080Z,18.63
2023-04-15T07:58:20.476Z,18.93
2023-04-15T08:00:51.751Z,21.47
2023-04-15T08:03:23.683Z,21.40
2023-04-15T08:05:55.105Z,20.70
2023-04-15T08:08:26.476Z,20.60
2023-04-15T08:10:58.557Z,21.17
2023-04-15T08:13:30.976Z,21.73
2023-04-15T08:16:19.237Z,21.87
2023-04-15T08:18:52.226Z,20.07
2023-04-15T08:21:24.501Z,20.73
2023-04-15T08:23:56.484Z,23.07
2023-04-15T08:26:27.819Z,22.07
2023-04-15T08:28:59.220Z,24.17
2023-04-15T08:31:30.782Z,24.73
2023-04-15T08:34:02.221Z,23.97
2023-04-15T08:36:33.645Z,23.40
2023-04-15T08:39:05.233Z,23.90
2023-04-15T08:41:50.604Z,20.33
2023-04-15T08:44:23.819Z,21.00
2023-04-15T08:46:57.032Z,20.27
2023-04-15T08:49:29.458Z,23.03
2023-04-15T08:52:01.436Z,22.30
2023-04-15T08:54:33.828Z,22.87
2023-04-15T08:57:06.021Z,21.70
2023-04-15T08:59:37.393Z,23.83
2023-04-15T09:02:09.260Z,23.00
2023-04-15T09:04:40.561Z,23.13
2023-04-15T09:07:11.983Z,20.80
2023-04-15T09:09:43.370Z,22.47
2023-04-15T09:12:14.709Z,22.60
2023-04-15T09:14:47.275Z,22.60
2023-04-15T09:17:20.969Z,25.20
2023-04-15T09:20:08.711Z,23.73
2023-04-15T09:22:43.638Z,25.57
2023-04-15T09:25:14.858Z,26.60
2023-04-15T09:27:49.835Z,22.23
2023-04-15T09:30:21.233Z,23.97
2023-04-15T09:32:57.353Z,21.97
2023-04-15T09:38:03.996Z,25.00
2023-04-15T09:40:36.302Z,24.83
2023-04-15T09:43:09.626Z,27.03
2023-04-15T09:45:51.229Z,25.67
2023-04-15T09:48:27.013Z,23.90
2023-04-15T09:51:00.440Z,24.17
2023-04-15T09:53:34.848Z,26.43
2023-04-15T09:56:07.898Z,26.80
2023-04-15T09:58:39.342Z,24.47
2023-04-15T10:01:11.597Z,26.43
2023-04-15T10:03:44.115Z,25.20
2023-04-15T10:06:16.326Z,24.43
2023-04-15T10:08:48.279Z,25.43
2023-04-15T10:11:23.174Z,24.13
2023-04-15T10:13:56.147Z,24.03
2023-04-15T10:16:30.897Z,23.50
2023-04-15T10:19:04.346Z,24.60
2023-04-15T10:21:37.642Z,25.47
2023-04-15T10:24:09.589Z,23.97
2023-04-15T10:26:41.266Z,22.67
2023-04-15T10:29:12.918Z,23.93
2023-04-15T10:31:44.913Z,23.77
2023-04-15T10:34:16.979Z,21.87
2023-04-15T10:36:48.319Z,24.50
2023-04-15T10:39:34.729Z,22.17
2023-04-15T10:42:17.283Z,24.27
2023-04-15T10:44:51.852Z,22.93
2023-04-15T10:47:23.258Z,23.40
2023-04-15T10:50:00.335Z,22.53
2023-04-15T10:52:31.775Z,22.77
2023-04-15T10:55:04.518Z,21.80
2023-04-15T10:57:38.968Z,21.00
2023-04-15T11:00:15.721Z,22.90
2023-04-15T11:03:08.159Z,20.90
2023-04-15T11:05:39.628Z,21.93
2023-04-15T11:08:12.282Z,21.43
2023-04-15T11:10:43.523Z,20.63
2023-04-15T11:13:17.930Z,20.60
2023-04-15T11:15:49.853Z,20.37
2023-04-15T11:18:23.666Z,19.93
2023-04-15T11:21:06.306Z,21.63
2023-04-15T11:23:47.235Z,19.57
2023-04-15T11:26:18.882Z,20.47
2023-04-15T11:28:50.170Z,20.93
2023-04-15T11:31:23.859Z,20.33
2023-04-15T11:33:58.830Z,18.90
2023-04-15T11:36:31.902Z,18.63
2023-04-15T11:39:07.274Z,18.97
2023-04-15T11:41:38.571Z,18.38
2023-04-15T11:44:17.872Z,20.67
2023-04-15T11:46:49.228Z,18.53
2023-04-15T11:49:31.188Z,18.17
2023-04-15T11:52:11.197Z,17.20
2023-04-15T11:54:42.620Z,18.33
2023-04-15T11:57:13.928Z,19.17
2023-04-15T11:59:46.295Z,17.87
2023-04-15T12:02:17.836Z,16.97
2023-04-15T12:04:49.242Z,16.87
2023-04-15T12:07:20.877Z,17.83
2023-04-15T12:09:56.833Z,16.20
2023-04-15T12:12:28.904Z,16.35
2023-04-15T12:15:00.260Z,15.77
2023-04-15T12:17:51.869Z,14.50
2023-04-15T12:20:25.913Z,10.77
2023-04-15T12:23:05.997Z,11.17
2023-04-15T12:25:37.415Z,10.50
2023-04-15T12:28:12.024Z,10.00
2023-04-15T12:30:51.531Z,11.97
2023-04-15T12:33:22.909Z,11.03
2023-04-15T12:35:54.210Z,10.23
2023-04-15T12:38:25.533Z,9.87
2023-04-15T12:40:57.954Z,8.63
2023-04-15T12:43:29.258Z,8.93
2023-04-15T12:46:00.607Z,8.17
2023-04-15T12:48:33.172Z,8.70
2023-04-15T12:51:05.739Z,8.50
2023-04-15T12:53:37.251Z,8.67
2023-04-15T12:56:08.700Z,8.37
2023-04-15T12:58:40.059Z,8.63
2023-04-15T13:01:11.599Z,8.60
2023-04-15T13:03:43.325Z,8.10
2023-04-15T13:06:14.745Z,8.47
2023-04-15T13:08:57.407Z,7.70
2023-04-15T13:11:36.606Z,10.17
2023-04-15T13:14:09.280Z,11.60
2023-04-15T13:16:41.284Z,9.73
2023-04-15T13:19:12.609Z,10.10
2023-04-15T13:21:44.053Z,8.03
2023-04-15T13:24:15.562Z,7.30
2023-04-15T13:26:49.690Z,7.70
2023-04-15T13:29:22.250Z,8.43
2023-04-15T13:31:53.688Z,7.57
2023-04-15T13:34:25.292Z,7.00
2023-04-15T13:36:56.633Z,7.60
2023-04-15T13:39:27.914Z,7.30
2023-04-15T13:41:59.509Z,7.97
2023-04-15T13:44:31.088Z,7.60
2023-04-15T13:47:02.467Z,7.43
2023-04-15T13:49:33.779Z,8.00
2023-04-15T13:52:05.326Z,7.80
2023-04-15T13:54:37.684Z,6.57
2023-04-15T13:57:09.493Z,6.87
2023-04-15T13:59:41.042Z,6.57
2023-04-15T14:02:12.437Z,6.77
2023-04-15T14:04:43.826Z,7.60
2023-04-15T14:07:15.265Z,6.63
2023-04-15T14:09:48.109Z,6.63
2023-04-15T14:12:19.502Z,6.73
2023-04-15T14:14:50.812Z,7.23
2023-04-15T14:17:22.357Z,7.60
2023-04-15T14:19:53.721Z,7.33
2023-04-15T14:22:25.062Z,6.83
2023-04-15T14:24:56.585Z,6.73
2023-04-15T14:27:28.537Z,7.93
2023-04-15T14:29:59.960Z,7.73
2023-04-15T14:32:31.393Z,6.87
2023-04-15T14:35:04.222Z,7.17
2023-04-15T14:37:35.904Z,7.67
2023-04-15T14:40:08.066Z,7.17
2023-04-15T14:42:39.347Z,7.70
2023-04-15T14:45:10.893Z,6.90
2023-04-15T14:47:42.264Z,7.10
2023-04-15T14:50:13.573Z,7.60
2023-04-15T14:52:45.364Z,7.47
2023-04-15T14:55:16.901Z,6.83
2023-04-15T14:57:48.207Z,6.90
2023-04-15T15:00:19.596Z,6.17
2023-04-15T15:02:51.032Z,6.73
2023-04-15T15:05:22.672Z,13.73
2023-04-15T15:07:54.057Z,7.23
2023-04-15T15:10:43.958Z,7.50
2023-04-15T15:13:17.777Z,6.43
2023-04-15T15:15:49.510Z,8.33
2023-04-15T15:18:21.500Z,6.43
2023-04-15T15:20:52.854Z,6.17
2023-04-15T15:23:24.322Z,6.20
2023-04-15T15:25:56.015Z,5.97
2023-04-15T15:28:27.323Z,5.60
2023-04-15T15:30:58.736Z,6.63
2023-04-15T15:33:30.387Z,5.10
2023-04-15T15:36:02.195Z,5.07
2023-04-15T15:38:33.569Z,5.70
2023-04-15T15:41:05.205Z,6.00
2023-04-15T15:43:36.861Z,5.60
2023-04-15T15:46:08.247Z,5.03
2023-04-15T15:48:39.607Z,5.37
2023-04-15T15:51:11.002Z,5.73
2023-04-15T15:53:42.466Z,5.30
2023-04-15T15:56:14.064Z,5.77
2023-04-15T15:58:45.465Z,5.70
2023-04-15T16:01:16.845Z,5.40
2023-04-15T16:03:48.378Z,5.30
2023-04-15T16:06:19.708Z,5.90
2023-04-15T16:08:50.974Z,5.57
2023-04-15T16:11:23.152Z,5.97
2023-04-15T16:13:54.636Z,5.57
2023-04-15T16:16:26.035Z,5.47
2023-04-15T16:18:57.681Z,4.73
2023-04-15T16:21:29.001Z,4.87
2023-04-15T16:24:00.370Z,5.70
2023-04-15T16:26:31.670Z,6.13
2023-04-15T16:29:03.923Z,5.67
2023-04-15T16:31:37.262Z,5.27
2023-04-15T16:34:09.007Z,5.20
2023-04-15T16:36:40.553Z,5.23
2023-04-15T16:39:11.989Z,5.73
2023-04-15T16:41:43.327Z,5.40
2023-04-15T16:44:14.803Z,5.10
2023-04-15T16:46:46.237Z,5.47
2023-04-15T16:49:17.549Z,5.10
2023-04-15T16:51:48.838Z,4.60
2023-04-15T16:54:20.164Z,5.40
2023-04-15T16:56:51.417Z,5.43
2023-04-15T16:59:23.089Z,5.80
2023-04-15T17:01:55.504Z,6.33
2023-04-15T17:04:28.348Z,6.20
2023-04-15T17:06:59.746Z,5.13
2023-04-15T17:09:31.073Z,6.60
2023-04-15T17:12:03.905Z,6.07
2023-04-15T17:14:35.411Z,5.77
2023-04-15T17:17:06.773Z,6.33
2023-04-15T17:19:38.397Z,6.37
2023-04-15T17:22:09.663Z,6.60
2023-04-15T17:24:40.929Z,6.27
2023-04-15T17:27:12.243Z,6.33
2023-04-15T17:29:43.514Z,5.93
2023-04-15T17:32:14.778Z,6.67
2023-04-15T17:34:50.713Z,5.80
2023-04-15T17:37:22.699Z,6.23
2023-04-15T17:39:54.033Z,6.97
2023-04-15T17:42:26.251Z,6.17
2023-04-15T17:44:57.656Z,6.70
2023-04-15T17:47:28.994Z,7.37
2023-04-15T17:50:00.340Z,7.40
2023-04-15T17:52:31.597Z,8.63
2023-04-15T17:55:03.048Z,7.63
2023-04-15T17:57:34.345Z,6.80
2023-04-15T18:00:06.891Z,6.90
2023-04-15T18:02:38.413Z,7.73
2023-04-15T18:05:10.379Z,9.10
2023-04-15T18:07:41.768Z,8.13
2023-04-15T18:10:13.093Z,7.47
2023-04-15T18:12:44.360Z,9.20
2023-04-15T18:15:15.846Z,8.40
2023-04-15T18:17:48.000Z,8.97
2023-04-15T18:20:19.530Z,8.73
2023-04-15T18:22:51.340Z,8.87
2023-04-15T18:25:22.668Z,9.10
2023-04-15T18:27:54.961Z,9.23
2023-04-15T18:30:26.570Z,9.50
2023-04-15T18:32:57.894Z,9.30
2023-04-15T18:35:32.229Z,9.13
2023-04-15T18:38:03.546Z,10.23
2023-04-15T18:40:35.438Z,9.47
2023-04-15T18:43:06.821Z,9.40
2023-04-15T18:45:38.328Z,9.17
2023-04-15T18:48:09.797Z,11.07
2023-04-15T18:50:42.607Z,9.80
2023-04-15T18:53:14.390Z,9.97
2023-04-15T18:55:46.540Z,11.00
2023-04-15T18:58:17.929Z,9.70
2023-04-15T19:00:49.230Z,11.00
2023-04-15T19:03:20.704Z,9.77
2023-04-15T19:05:52.114Z,10.50
2023-04-15T19:08:23.411Z,9.33
2023-04-15T19:10:54.725Z,9.77
2023-04-15T19:13:26.242Z,10.17
2023-04-15T19:15:57.590Z,11.67
2023-04-15T19:18:28.995Z,10.67
2023-04-15T19:21:00.534Z,9.70
2023-04-15T19:23:32.086Z,10.93
2023-04-15T19:26:03.497Z,11.73
2023-04-15T19:28:34.909Z,11.73
2023-04-15T19:31:06.618Z,11.23
2023-04-15T19:33:38.218Z,11.03
2023-04-15T19:36:09.977Z,10.43
2023-04-15T19:38:41.338Z,10.53
2023-04-15T19:41:12.994Z,12.13
2023-04-15T19:43:44.362Z,12.90
2023-04-15T19:46:15.700Z,11.83
2023-04-15T19:48:47.148Z,11.50
2023-04-15T19:51:18.769Z,12.40
2023-04-15T19:53:50.868Z,12.40
2023-04-15T19:56:23.811Z,12.67
2023-04-15T19:58:55.229Z,11.70
2023-04-15T20:01:27.136Z,11.27
2023-04-15T20:03:58.707Z,12.33
2023-04-15T20:06:30.254Z,11.80
2023-04-15T20:09:01.980Z,11.87
2023-04-15T20:12:44.881Z,11.57
2023-04-15T20:14:25.600Z,11.70
2023-04-15T20:16:56.912Z,13.07
2023-04-15T20:19:28.198Z,13.03
2023-04-15T20:21:59.572Z,12.67
2023-04-15T20:24:30.906Z,13.53
2023-04-15T20:27:03.797Z,13.87
2023-04-15T20:29:35.962Z,14.77
2023-04-15T20:32:11.121Z,15.47
2023-04-15T20:34:42.532Z,13.57
2023-04-15T20:37:13.842Z,13.27
2023-04-15T20:39:45.129Z,13.47
2023-04-15T20:42:17.287Z,10.83
2023-04-15T20:44:48.647Z,12.50
2023-04-15T20:47:20.392Z,13.97
2023-04-15T20:49:51.945Z,11.47
2023-04-15T20:52:23.390Z,13.00
2023-04-15T20:54:54.694Z,17.03
2023-04-15T20:57:26.119Z,14.17
2023-04-15T20:59:57.582Z,13.70
2023-04-15T21:02:29.199Z,11.43
2023-04-15T21:05:00.739Z,12.87
2023-04-15T21:07:32.037Z,12.00
2023-04-15T21:10:03.466Z,13.70
2023-04-15T21:12:34.852Z,12.30
2023-04-15T21:15:07.169Z,12.23
2023-04-15T21:17:39.057Z,11.80
2023-04-15T21:20:11.122Z,13.03
2023-04-15T21:22:42.489Z,12.40
2023-04-15T21:25:14.126Z,11.80
2023-04-15T21:27:45.793Z,11.60
2023-04-15T21:30:17.510Z,12.00
2023-04-15T21:32:49.222Z,11.90
2023-04-15T21:35:21.564Z,11.13
2023-04-15T21:37:54.463Z,11.57
2023-04-15T21:40:26.595Z,10.90
2023-04-15T21:43:02.905Z,11.00
2023-04-15T21:45:35.449Z,10.93
2023-04-15T21:48:08.888Z,11.63
2023-04-15T21:50:40.839Z,10.70
2023-04-15T21:53:14.739Z,11.47
2023-04-15T21:55:46.362Z,10.37
2023-04-15T21:58:18.118Z,11.67
2023-04-15T22:00:49.831Z,11.13
2023-04-15T22:03:21.557Z,10.23
2023-04-15T22:05:52.938Z,10.87
2023-04-15T22:08:24.307Z,12.77
2023-04-15T22:10:55.638Z,10.90
2023-04-15T22:13:26.900Z,11.40
2023-04-15T22:15:58.322Z,10.43
2023-04-15T22:18:29.666Z,11.93
2023-04-15T22:21:01.511Z,11.93
2023-04-15T22:23:32.925Z,11.63
2023-04-15T22:26:05.372Z,13.23
2023-04-15T22:28:36.676Z,11.57
2023-04-15T22:31:08.118Z,11.17
2023-04-15T22:33:39.480Z,10.40
2023-04-15T22:36:11.112Z,11.60
2023-04-15T22:38:42.492Z,12.57
2023-04-15T22:41:13.829Z,11.00
2023-04-15T22:43:46.344Z,11.67
2023-04-15T22:46:17.648Z,10.57
2023-04-15T22:48:49.014Z,11.07
2023-04-15T22:51:24.187Z,13.27
2023-04-15T22:53:56.050Z,13.40
2023-04-15T22:56:27.324Z,12.67
2023-04-15T22:58:58.616Z,13.40
2023-04-15T23:01:31.845Z,11.50
2023-04-15T23:04:04.668Z,11.43
2023-04-15T23:06:39.830Z,12.23
2023-04-15T23:09:11.359Z,12.50
2023-04-15T23:11:42.817Z,12.77
2023-04-15T23:14:14.102Z,11.90
2023-04-15T23:16:45.613Z,12.17
2023-04-15T23:19:16.948Z,13.00
2023-04-15T23:21:48.435Z,11.97
2023-04-15T23:24:19.730Z,12.40
2023-04-15T23:26:52.858Z,12.80
2023-04-15T23:29:24.222Z,11.63
2023-04-15T23:31:56.792Z,12.90
2023-04-15T23:34:28.250Z,14.00
2023-04-15T23:36:59.519Z,12.00
2023-04-15T23:39:31.047Z,12.53
2023-04-15T23:42:03.260Z,12.63
2023-04-15T23:44:34.566Z,12.03
2023-04-15T23:47:05.974Z,13.87
2023-04-15T23:49:37.275Z,13.67
2023-04-15T23:52:08.620Z,12.53
2023-04-15T23:54:39.887Z,13.37
2023-04-15T23:57:11.213Z,13.63
2023-04-15T23:59:42.607Z,13.10
